Tiempo atmosférico en la estación meteorológica de Agüimes, Las Palmas (306 m.)



Fecha
DESCASC
Temp. máxima en grados centígrados (hora)
DESCASC
Temp. mínima en grados centígrados (hora)
DESCASC
Temp. media en grados centígrados
DESCASC
Racha de viento máxima en m/sg (hora)
DESCASC
Velocidad máxima media en intervalos de 10 minutos(hora)
DESCASC
Precipitaciones diarias en mm
DESCASC
Precipitaciones de 00:00 a 06:00 en mm
DESCASC
Precipitaciones de 06:00 a 12:00 en mm
DESCASC
Precipitaciones de 12:00 a 18:00 en mm
DESCASC
Precipitaciones de 18:00 a 24:00 en mm
DESCASC
18-01-2018 20.9 (13:50) 14.1 (06:20) 17.5 15 (13:50) 10.28 (14:40) 0.4 0 0.4 0 0
17-01-2018 20 (14:00) 14.3 (00:00) 17.2 20.83 (09:40) 12.5 (11:30) 0 0 0 0 0
16-01-2018 16.6 (15:40) 12.7 (05:50) 14.7 20.28 (10:10) 11.94 (23:50) 0.2 0.2 0 0 0
15-01-2018 17.4 (11:50) 12.9 (21:10) 15.1 16.11 (13:40) 10 (11:00) 1.8 0 0 1.8 0
14-01-2018 16.3 (14:30) 13.5 (00:00) 14.9 13.89 (06:40) 8.89 (06:40) 3.8 0.4 3.4 0 0
13-01-2018 18.7 (14:00) 13.3 (00:00) 16 14.17 (22:40) 9.44 (13:10) 0 0 0 0 0
12-01-2018 19.8 (13:10) 13 (00:00) 16.4 11.39 (16:00) 7.5 (16:00) 0 0 0 0 0
11-01-2018 18.8 (13:40) 13.9 (00:00) 16.3 13.61 (16:30) 9.44 (16:20) 2 1.2 0.8 0 0
10-01-2018 21.2 (12:20) 13.3 (00:00) 17.3 13.89 (15:20) 9.72 (15:20) 0 0 0 0 0
09-01-2018 19.8 (12:00) 12.5 (00:00) 16.1 5.83 (12:40) 3.89 (12:20) 0 0 0 0 0
08-01-2018 19.2 (12:00) 13 (00:00) 16.1 9.72 (01:40) 6.11 (12:20) 0 0 0 0 0
07-01-2018 17.9 (14:40) 12 (00:00) 14.9 15.28 (15:00) 9.44 (17:00) 6.8 5.8 0.8 0.2 0
06-01-2018 18.4 (14:40) 12.9 (00:00) 15.6 11.39 (23:10) 7.22 (17:50) 1.2 0 0 0 1.2
05-01-2018 21.7 (12:10) 13.5 (00:00) 17.6 7.5 (00:10) 5.28 (03:20) 0 0 0 0 0
04-01-2018 23.5 (12:00) 16.5 (23:00) 20 11.11 (01:00) 7.22 (08:20) 0 0 0 0 0
03-01-2018 25.8 (13:10) 15.4 (00:00) 20.6 11.67 (01:00) 8.06 (01:20) 0 0 0 0 0
02-01-2018 24.2 (14:20) 17 (00:00) 20.6 12.22 (23:00) 8.33 (20:10) 0 0 0 0 0
01-01-2018 23.1 (16:20) 16 (00:00) 19.6 20 (20:10) 12.22 (20:00) 0 0 0 0 0
31-12-2017 25.5 (13:40) 16.7 (00:00) 21.1 13.89 (22:00) 9.17 (21:20) 0 0 0 0 0
30-12-2017 20.3 (13:40) 14.5 (00:00) 17.4 10 (02:20) 6.39 (01:50) 0 0 0 0 0
29-12-2017 18.3 (12:00) 14.7 (00:00) 16.5 12.78 (14:50) 9.72 (14:50) 0 0 0 0 0
28-12-2017 20.3 (14:00) 14.2 (00:00) 17.2 17.5 (19:10) 12.22 (15:10) 0 0 0 0 0
27-12-2017 19.2 (13:40) 13.2 (00:00) 16.2 14.44 (23:59) 8.89 (23:30) 0 0 0 0 0
26-12-2017 19.1 (12:50) 13 (00:00) 16.1 9.44 (19:30) 6.11 (19:40) 0 0 0 0 0
25-12-2017 18.6 (12:30) 12.7 (00:00) 15.7 8.89 (21:50) 5.83 (21:10) 0 0 0 0 0
24-12-2017 17.8 (13:30) 11.7 (00:00) 14.7 7.78 (00:30) 5.28 (00:10) 0 0 0 0 0
23-12-2017 18.4 (13:40) 12.9 (00:00) 15.6 10 (21:40) 5.83 (01:40) 0 0 0 0 0
22-12-2017 19.5 (13:40) 13.5 (00:00) 16.5 9.44 (00:30) 6.11 (00:20) 0 0 0 0 0

Gráficas

Temp. máximas Temp. mínimas Temp. medias Precipitaciones Rachas de viento máximas Velocidades máximas media en intervalos de 10 minutos

Datos horarios

Fecha y hora oficial Temperatura (ºC) Velocidad del viento (km/h) Dirección del viento Racha (km/h) Dirección de racha Precipitación (mm) Presión (hPa) Tendencia (hPa) Humedad (%)
2018-01-20 23:00:00 15 13 Norte 20 Norte 0 -- -- 54
2018-01-20 22:00:00 15.7 13 Norte 21 Norte 0 -- -- 50
2018-01-20 21:00:00 16 14 Norte 29 Norte 0 -- -- 56
2018-01-20 20:00:00 14.8 22 Norte 40 Norte 0 -- -- 73
2018-01-20 19:00:00 14.9 29 Norte 45 Norte 0 -- -- 79
2018-01-20 18:00:00 15.8 27 Norte 49 Norte 0 -- -- 75
2018-01-20 17:00:00 17.3 31 Norte 46 Nordeste 0 -- -- 69
2018-01-20 16:00:00 18.4 29 Nordeste 49 Nordeste 0 -- -- 65
2018-01-20 15:00:00 18.9 32 Nordeste 55 Norte 0 -- -- 64
2018-01-20 14:00:00 19.1 34 Nordeste 53 Nordeste 0 -- -- 62
2018-01-20 13:00:00 19.1 34 Nordeste 56 Nordeste 0 -- -- 62
2018-01-20 12:00:00 18.2 36 Nordeste 58 Norte 0 -- -- 65
2018-01-20 11:00:00 16.2 35 Norte 50 Nordeste 0 -- -- 75
2018-01-20 10:00:00 16.6 33 Norte 57 Norte 0 -- -- 66
2018-01-20 09:00:00 15.7 36 Norte 50 Norte 0 -- -- 73
2018-01-20 08:00:00 14.8 30 Norte 48 Norte 0 -- -- 80
2018-01-20 07:00:00 14.9 27 Norte 53 Norte 0 -- -- 76
2018-01-20 06:00:00 14.8 27 Norte 57 Norte 0 -- -- 75
2018-01-20 05:00:00 14.1 36 Norte 53 Norte 0 -- -- 82
2018-01-20 04:00:00 15.4 36 Norte 64 Norte 0 -- -- 73
2018-01-20 03:00:00 14.9 43 Norte 72 Norte 0 -- -- 72
2018-01-20 02:00:00 15.2 47 Norte 67 Norte 0 -- -- 68
2018-01-20 01:00:00 15 45 Norte 62 Norte 0 -- -- 70
2018-01-20 00:00:00 15 37 Norte 58 Norte 0 -- -- 70
2018-01-19 23:00:00 15.1 32 Norte 51 Norte 0 -- -- 71
2018-01-19 22:00:00 15.2 31 Norte 50 Norte 0 -- -- 73
2018-01-19 21:00:00 15.4 34 Norte 57 Norte 0 -- -- 67
2018-01-19 20:00:00 15.4 44 Norte 68 Norte 0 -- -- 69
2018-01-19 19:00:00 15.6 42 Norte 67 Norte 0 -- -- 66
2018-01-19 18:00:00 16.2 44 Norte 72 Norte 0 -- -- 64
2018-01-19 17:00:00 17.6 33 Norte 70 Norte 0 -- -- 64
2018-01-19 16:00:00 18.3 41 Norte 68 Norte 0 -- -- 58
2018-01-19 15:00:00 19.2 35 Norte 61 Norte 0 -- -- 60
2018-01-19 14:00:00 19.1 36 Norte 57 Nordeste 0 -- -- 56
2018-01-19 13:00:00 19.1 33 Norte 54 Norte 0 -- -- 59
2018-01-19 12:00:00 18.7 33 Norte 52 Norte 0 -- -- 57
2018-01-19 11:00:00 17.5 29 Norte 51 Norte 0 -- -- 60
2018-01-19 10:00:00 17.1 33 Norte 55 Norte 0 -- -- 58
2018-01-19 09:00:00 15.6 27 Norte 46 Norte 0 -- -- 68
2018-01-19 08:00:00 15 30 Norte 58 Norte 0 -- -- 69
2018-01-19 07:00:00 15 18 Norte 45 Norte 0 -- -- 63
2018-01-19 06:00:00 15.1 34 Norte 59 Norte 0 -- -- 66
2018-01-19 05:00:00 15.4 14 Norte 62 Norte 0 -- -- 61
2018-01-19 04:00:00 15.2 48 Norte 71 Norte 0 -- -- 66
2018-01-19 03:00:00 15 32 Norte 49 Norte 0 -- -- 69
2018-01-19 02:00:00 15.1 28 Norte 44 Noroeste 0 -- -- 67
2018-01-19 01:00:00 15.4 18 Norte 40 Norte 0 -- -- 66
2018-01-19 00:00:00 15.2 21 Norte 40 Norte 0 -- -- 68
2018-01-18 23:00:00 15.2 23 Norte 42 Norte 0 -- -- 67
2018-01-18 22:00:00 15.4 17 Norte 42 Norte 0 -- -- 66
2018-01-18 21:00:00 15.2 19 Norte 42 Norte 0 -- -- 70
2018-01-18 20:00:00 15 27 Norte 41 Norte 0 -- -- 71
2018-01-18 19:00:00 15.2 29 Norte 45 Norte 0 -- -- 68
2018-01-18 18:00:00 16.9 19 Norte 50 Norte 0 -- -- 63
2018-01-18 17:00:00 18.8 19 Norte 49 Norte 0 -- -- 58
2018-01-18 16:00:00 18.1 30 Norte 54 Norte 0 -- -- 63
2018-01-18 15:00:00 18.7 28 Norte 54 Norte 0 -- -- 66
2018-01-18 14:00:00 20.7 26 Norte 54 Norte 0 -- -- 56
2018-01-18 13:00:00 19.9 24 Norte 48 Norte 0 -- -- 53
2018-01-18 12:00:00 18.8 25 Norte 50 Norte 0 -- -- 52
2018-01-18 11:00:00 17.7 25 Norte 48 Norte 0.2 -- -- 55
2018-01-18 10:00:00 15.5 27 Norte 45 Norte 0 -- -- 66
2018-01-18 09:00:00 14.1 24 Norte 37 Norte 0 -- -- 74
2018-01-18 08:00:00 14.5 17 Norte 43 Norte 0 -- -- 70
2018-01-18 07:00:00 14.4 22 Norte 39 Norte 0.2 -- -- 79
2018-01-18 06:00:00 14.8 19 Norte 34 Norte 0 -- -- 77
2018-01-18 05:00:00 14.8 20 Norte 36 Norte 0 -- -- 76
2018-01-18 04:00:00 14.9 19 Norte 34 Norte 0 -- -- 77
2018-01-18 03:00:00 14.7 20 Norte 49 Norte 0 -- -- 77
2018-01-18 02:00:00 15.1 15 Norte 39 Norte 0 -- -- 76
2018-01-18 01:00:00 14.8 24 Norte 42 Norte 0 -- -- 84
2018-01-18 00:00:00 15.6 18 Norte 36 Norte 0 -- -- 74
2018-01-17 23:00:00 15.8 27 Norte 58 Norte 0 -- -- 71
2018-01-17 22:00:00 16 36 Norte 57 Norte 0 -- -- 65
2018-01-17 21:00:00 16.1 29 Norte 52 Noroeste 0 -- -- 59
2018-01-17 20:00:00 16.2 25 Noroeste 53 Noroeste 0 -- -- 55
2018-01-17 19:00:00 16.5 32 Norte 53 Norte 0 -- -- 59
2018-01-17 18:00:00 16.9 25 Norte 51 Noroeste 0 -- -- 59
2018-01-17 17:00:00 18.4 24 Norte 56 Norte 0 -- -- 53
2018-01-17 16:00:00 19.3 27 Norte 57 Norte 0 -- -- 52
2018-01-17 15:00:00 19.3 34 Norte 54 Norte 0 -- -- 55
2018-01-17 14:00:00 20 30 Norte 53 Noroeste 0 -- -- 54
2018-01-17 13:00:00 19.4 33 Norte 60 Norte 0 -- -- 51
2018-01-17 12:00:00 17.9 42 Norte 65 Norte 0 -- -- 60
2018-01-17 11:00:00 17.2 42 Norte 65 Norte 0 -- -- 63
2018-01-17 10:00:00 16.1 42 Norte 75 Norte 0 -- -- 71
2018-01-17 09:00:00 15 34 Norte 60 Norte 0 -- -- 76
2018-01-17 08:00:00 14.5 37 Norte 62 Norte 0 -- -- 76
2018-01-17 07:00:00 14.8 36 Norte 69 Norte 0 -- -- 69
2018-01-17 06:00:00 14.7 37 Norte 64 Norte 0 -- -- 69
2018-01-17 05:00:00 14.6 38 Norte 61 Norte 0 -- -- 74
2018-01-17 04:00:00 14.7 40 Norte 60 Norte 0 -- -- 72
2018-01-17 03:00:00 14.7 35 Norte 61 Norte 0 -- -- 73
2018-01-17 02:00:00 14.6 39 Norte 57 Norte 0 -- -- 72
2018-01-17 01:00:00 14.3 36 Norte 54 Norte 0 -- -- 76
2018-01-17 00:00:00 14.3 40 Norte 61 Norte 0 -- -- 76
2018-01-16 23:00:00 14.2 40 Norte 62 Norte 0 -- -- 78
2018-01-16 22:00:00 14.2 33 Norte 58 Norte 0 -- -- 77
2018-01-16 21:00:00 14.4 33 Norte 49 Norte 0 -- -- 77
2018-01-16 20:00:00 14.4 28 Norte 60 Norte 0 -- -- 77
2018-01-16 19:00:00 14.5 36 Norte 59 Norte 0 -- -- 78
2018-01-16 18:00:00 15 38 Norte 64 Norte 0 -- -- 74
2018-01-16 17:00:00 15.7 32 Norte 60 Norte 0 -- -- 72
2018-01-16 16:00:00 16.5 35 Norte 65 Norte 0 -- -- 68
2018-01-16 15:00:00 16.4 37 Norte 62 Norte 0 -- -- 69
2018-01-16 14:00:00 16.3 37 Norte 62 Nordeste 0 -- -- 66
2018-01-16 13:00:00 15.3 40 Norte 66 Norte 0 -- -- 68
2018-01-16 12:00:00 15.9 36 Norte 66 Norte 0 -- -- 64
2018-01-16 11:00:00 14.9 34 Norte 73 Norte 0 -- -- 65
2018-01-16 10:00:00 14.4 39 Norte 61 Norte 0 -- -- 65
2018-01-16 09:00:00 13.9 35 Norte 65 Norte 0 -- -- 64
2018-01-16 08:00:00 13.4 38 Norte 66 Nordeste 0 -- -- 69
2018-01-16 07:00:00 13.4 30 Norte 64 Norte 0 -- -- 67
2018-01-16 06:00:00 12.9 37 Norte 58 Norte 0.2 -- -- 70
2018-01-16 05:00:00 13.4 36 Norte 59 Norte 0 -- -- 64
2018-01-16 04:00:00 13.5 40 Norte 63 Norte 0 -- -- 64
2018-01-16 03:00:00 13.5 33 Norte 64 Norte 0 -- -- 63
2018-01-16 02:00:00 13.6 32 Norte 54 Norte 0 -- -- 67
2018-01-16 01:00:00 13.6 33 Norte 57 Norte 0 -- -- 67
2018-01-16 00:00:00 13.6 32 Norte 54 Norte 0 -- -- 70
2018-01-15 23:00:00 13.5 31 Norte 49 Norte 0 -- -- 70
2018-01-15 22:00:00 13.3 30 Norte 47 Nordeste 0 -- -- 68
2018-01-15 21:00:00 13 28 Norte 55 Norte 0 -- -- 66
2018-01-15 20:00:00 13.2 32 Norte 49 Norte 0 -- -- 71
2018-01-15 19:00:00 13.1 25 Norte 44 Norte 0 -- -- 71
2018-01-15 18:00:00 13.7 31 Norte 51 Norte 0 -- -- 68
2018-01-15 17:00:00 14.3 32 Norte 49 Norte 0 -- -- 69
2018-01-15 16:00:00 14.5 25 Norte 51 Norte 0.2 -- -- 77
2018-01-15 15:00:00 14.2 29 Norte 49 Norte 0.4 -- -- 86
2018-01-15 14:00:00 14.8 31 Norte 58 Norte 0.6 -- -- 87
2018-01-15 13:00:00 15 30 Norte 51 Norte 0.6 -- -- 84
2018-01-15 12:00:00 17.3 30 Norte 54 Norte 0 -- -- 67
2018-01-15 11:00:00 17.1 36 Norte 57 Norte 0 -- -- 62
2018-01-15 10:00:00 16.4 24 Norte 57 Norte 0 -- -- 58
2018-01-15 09:00:00 14.9 27 Norte 51 Norte 0 -- -- 63
2018-01-15 08:00:00 13.9 21 Norte 41 Norte 0 -- -- 65
2018-01-15 07:00:00 13.9 22 Norte 44 Nordeste 0 -- -- 71
2018-01-15 06:00:00 13.9 23 Norte 45 Norte 0 -- -- 71
2018-01-15 05:00:00 13.8 23 Norte 49 Norte 0 -- -- 71
2018-01-15 04:00:00 13.6 26 Norte 43 Noroeste 0 -- -- 71
2018-01-15 03:00:00 13.4 22 Norte 40 Norte 0 -- -- 81
2018-01-15 02:00:00 13.9 19 Norte 41 Norte 0 -- -- 71
2018-01-15 01:00:00 13.7 23 Norte 43 Norte 0 -- -- 71
2018-01-15 00:00:00 13.8 21 Norte 42 Norte 0 -- -- 72
2018-01-14 23:00:00 13.8 19 Norte 37 Norte 0 -- -- 68
2018-01-14 22:00:00 13.6 22 Norte 37 Norte 0 -- -- 74
2018-01-14 21:00:00 13.8 25 Norte 37 Norte 0 -- -- 70
2018-01-14 20:00:00 13.7 21 Norte 37 Norte 0 -- -- 72
2018-01-14 19:00:00 13.9 21 Norte 34 Norte 0 -- -- 72
2018-01-14 18:00:00 14.7 23 Norte 36 Norte 0 -- -- 70
2018-01-14 17:00:00 15.7 21 Norte 43 Norte 0 -- -- 73
2018-01-14 16:00:00 15.2 24 Norte 41 Norte 0 -- -- 75
2018-01-14 15:00:00 15.6 23 Norte 40 Norte 0 -- -- 78
2018-01-14 14:00:00 16.1 21 Norte 40 Norte 0 -- -- 74
2018-01-14 13:00:00 15.5 21 Norte 45 Norte 0 -- -- 78
2018-01-14 12:00:00 14.7 26 Norte 42 Norte 0.2 -- -- 90
2018-01-14 11:00:00 14.4 26 Norte 40 Norte 0.2 -- -- 91
2018-01-14 10:00:00 13.9 21 Norte 45 Norte 0 -- -- 90
2018-01-14 09:00:00 13.8 28 Norte 50 Norte 0.2 -- -- 87
2018-01-14 08:00:00 13.6 31 Norte 49 Norte 1.6 -- -- 93
2018-01-14 07:00:00 13.5 30 Norte 50 Norte 1.2 -- -- 93
2018-01-14 06:00:00 14.2 31 Norte 46 Norte 0.2 -- -- 90
2018-01-14 05:00:00 14.1 23 Norte 35 Nordeste 0 -- -- 91
2018-01-14 04:00:00 14 25 Norte 35 Norte 0.2 -- -- 91
2018-01-14 03:00:00 14.2 21 Norte 39 Norte 0 -- -- 87
2018-01-14 02:00:00 14.9 22 Norte 38 Norte 0 -- -- 79
2018-01-14 01:00:00 14.7 22 Norte 38 Norte 0 -- -- 82
2018-01-14 00:00:00 15.2 23 Norte 44 Norte 0 -- -- 79
2018-01-13 23:00:00 15.2 31 Norte 51 Nordeste 0 -- -- 76
2018-01-13 22:00:00 14.9 31 Norte 48 Norte 0 -- -- 79
2018-01-13 21:00:00 15.4 29 Norte 48 Norte 0 -- -- 73
2018-01-13 20:00:00 15.2 26 Norte 49 Norte 0 -- -- 67
2018-01-13 19:00:00 15.2 28 Norte 44 Norte 0 -- -- 66
2018-01-13 18:00:00 15.6 26 Norte 42 Norte 0 -- -- 69
2018-01-13 17:00:00 16.8 28 Norte 48 Norte 0 -- -- 60
2018-01-13 16:00:00 17.1 33 Norte 49 Norte 0 -- -- 59
2018-01-13 15:00:00 17.7 32 Nordeste 50 Nordeste 0 -- -- 58
2018-01-13 14:00:00 18.7 31 Norte 50 Norte 0 -- -- 54
2018-01-13 13:00:00 18.3 34 Norte 49 Nordeste 0 -- -- 54
2018-01-13 12:00:00 17.7 29 Norte 43 Norte 0 -- -- 60
2018-01-13 11:00:00 16.3 22 Norte 42 Norte 0 -- -- 63
2018-01-13 10:00:00 14.9 23 Norte 34 Nordeste 0 -- -- 68
2018-01-13 09:00:00 14.3 19 Norte 33 Norte 0 -- -- 69
2018-01-13 08:00:00 13.8 15 Norte 27 Norte 0 -- -- 72
2018-01-13 07:00:00 13.6 13 Norte 24 Norte 0 -- -- 73
2018-01-13 06:00:00 13.8 13 Norte 23 Norte 0 -- -- 74
2018-01-13 05:00:00 13.4 14 Norte 30 Norte 0 -- -- 74
2018-01-13 04:00:00 13.4 11 Norte 26 Norte 0 -- -- 73
2018-01-13 03:00:00 13.8 17 Norte 36 Norte 0 -- -- 73
2018-01-13 02:00:00 13.9 18 Norte 33 Norte 0 -- -- 72
2018-01-13 01:00:00 14.1 17 Norte 32 Noroeste 0 -- -- 72
2018-01-13 00:00:00 13.9 21 Norte 35 Noroeste 0 -- -- 73
2018-01-12 23:00:00 14.2 16 Norte 28 Norte 0 -- -- 73
2018-01-12 22:00:00 14.5 17 Norte 36 Norte 0 -- -- 73
2018-01-12 21:00:00 14.8 22 Norte 35 Norte 0 -- -- 71
2018-01-12 20:00:00 14.9 22 Norte 31 Nordeste 0 -- -- 73
2018-01-12 19:00:00 14.9 22 Norte 33 Norte 0 -- -- 75
2018-01-12 18:00:00 15.6 21 Norte 40 Norte 0 -- -- 72
2018-01-12 17:00:00 17 27 Norte 39 Norte 0 -- -- 69
2018-01-12 16:00:00 18.3 27 Nordeste 41 Nordeste 0 -- -- 67
2018-01-12 15:00:00 19.1 23 Nordeste 36 Nordeste 0 -- -- 66
2018-01-12 14:00:00 19.7 21 Nordeste 36 Nordeste 0 -- -- 62
2018-01-12 13:00:00 19.5 19 Nordeste 35 Nordeste 0 -- -- 62
2018-01-12 12:00:00 18.8 19 Nordeste 28 Nordeste 0 -- -- 63
2018-01-12 11:00:00 17.6 20 Nordeste 33 Norte 0 -- -- 65
2018-01-12 10:00:00 16.1 24 Norte 36 Norte 0 -- -- 70
2018-01-12 09:00:00 14.4 21 Norte 33 Norte 0 -- -- 75
2018-01-12 08:00:00 13.4 23 Norte 36 Norte 0 -- -- 77
2018-01-12 07:00:00 13.4 23 Norte 32 Norte 0 -- -- 79
2018-01-12 06:00:00 13.2 22 Norte 31 Norte 0 -- -- 79
2018-01-12 05:00:00 13.1 21 Norte 33 Norte 0 -- -- 80
2018-01-12 04:00:00 13.4 23 Norte 35 Norte 0 -- -- 77
2018-01-12 03:00:00 13.5 22 Norte 34 Norte 0 -- -- 76
2018-01-12 02:00:00 13.6 23 Norte 37 Norte 0 -- -- 73
2018-01-12 01:00:00 13.8 24 Norte 36 Norte 0 -- -- 76
2018-01-12 00:00:00 13.9 22 Norte 38 Norte 0 -- -- 75
2018-01-11 23:00:00 14.1 26 Norte 39 Norte 0 -- -- 74
2018-01-11 22:00:00 14.3 25 Norte 42 Norte 0 -- -- 72
2018-01-11 21:00:00 14.4 30 Norte 45 Norte 0 -- -- 72
2018-01-11 20:00:00 14.2 28 Norte 42 Norte 0 -- -- 73
2018-01-11 19:00:00 14.4 27 Norte 39 Norte 0 -- -- 74
2018-01-11 18:00:00 15.4 27 Norte 48 Norte 0 -- -- 70
2018-01-11 17:00:00 16.6 31 Norte 49 Norte 0 -- -- 67
2018-01-11 16:00:00 17.7 29 Norte 46 Nordeste 0 -- -- 67
2018-01-11 15:00:00 18.4 28 Norte 47 Norte 0 -- -- 66
2018-01-11 14:00:00 18.4 28 Norte 42 Nordeste 0 -- -- 68
2018-01-11 13:00:00 18.1 28 Nordeste 43 Nordeste 0 -- -- 69
2018-01-11 12:00:00 17.7 23 Norte 39 Nordeste 0 -- -- 74
2018-01-11 11:00:00 16.4 29 Nordeste 41 Nordeste 0 -- -- 84
2018-01-11 10:00:00 14.9 25 Nordeste 37 Norte 0 -- -- 90
2018-01-11 09:00:00 14.6 19 Norte 32 Norte 0 -- -- 94
2018-01-11 08:00:00 14.8 17 Norte 32 Nordeste 0.4 -- -- 95
2018-01-11 07:00:00 15.1 17 Nordeste 35 Nordeste 0.4 -- -- 96
2018-01-11 06:00:00 15.4 19 Nordeste 30 Nordeste 0.2 -- -- 95
2018-01-11 05:00:00 15.6 17 Norte 29 Norte 1 -- -- 94
2018-01-11 04:00:00 16 22 Norte 31 Norte 0 -- -- 90
2018-01-11 03:00:00 16 17 Nordeste 34 Norte 0 -- -- 87
2018-01-11 02:00:00 16.9 22 Norte 40 Norte 0 -- -- 78
2018-01-11 01:00:00 16.7 25 Norte 42 Norte 0 -- -- 78
2018-01-11 00:00:00 16.6 22 Norte 40 Norte 0 -- -- 79
2018-01-10 23:00:00 16.6 24 Norte 41 Norte 0 -- -- 74
2018-01-10 22:00:00 16 21 Nordeste 39 Norte 0 -- -- 75
2018-01-10 21:00:00 17 28 Norte 42 Norte 0 -- -- 68
2018-01-10 20:00:00 16.7 24 Norte 46 Norte 0 -- -- 71
2018-01-10 19:00:00 16.8 28 Norte 44 Norte 0 -- -- 69
2018-01-10 18:00:00 17.5 26 Norte 44 Norte 0 -- -- 66
2018-01-10 17:00:00 18.5 28 Nordeste 47 Norte 0 -- -- 73
2018-01-10 16:00:00 19.5 31 Norte 50 Nordeste 0 -- -- 70
2018-01-10 15:00:00 20 33 Nordeste 49 Nordeste 0 -- -- 69
2018-01-10 14:00:00 20.7 28 Nordeste 44 Nordeste 0 -- -- 68
2018-01-10 13:00:00 21 26 Nordeste 36 Nordeste 0 -- -- 66
2018-01-10 12:00:00 20.7 17 Nordeste 28 Norte 0 -- -- 67
2018-01-10 11:00:00 20 14 Nordeste 23 Norte 0 -- -- 66
2018-01-10 10:00:00 17.6 4 Sur 12 Oeste 0 -- -- 77
2018-01-10 09:00:00 14.8 4 Norte 11 Noroeste 0 -- -- 88
2018-01-10 08:00:00 14.1 2 Noroeste 9 Noroeste 0 -- -- 88
2018-01-10 07:00:00 13.4 8 Noroeste 12 Noroeste 0 -- -- 89
2018-01-10 06:00:00 13.4 3 Noroeste 18 Norte 0 -- -- 87
2018-01-10 05:00:00 14.1 13 Norte 21 Norte 0 -- -- 85
2018-01-10 04:00:00 13.5 6 Noroeste 11 Noroeste 0 -- -- 91
2018-01-10 03:00:00 13.7 4 Noroeste 8 Noroeste 0 -- -- 92
2018-01-10 02:00:00 13.8 3 Oeste 5 Noroeste 0 -- -- 92
2018-01-10 01:00:00 14.1 3 Noroeste 8 Noroeste 0 -- -- 93
2018-01-10 00:00:00 14.6 5 Oeste 8 Noroeste 0 -- -- 93
2018-01-09 23:00:00 14.9 3 Norte 13 Nordeste 0 -- -- 91
2018-01-09 22:00:00 15.7 3 Este 5 Este 0 -- -- 92
2018-01-09 21:00:00 15.7 0 Calma 4 Sur 0 -- -- 92
2018-01-09 20:00:00 15.6 0 Calma 4 Sudoeste 0 -- -- 92
2018-01-09 19:00:00 15.7 3 Sudoeste 4 Sur 0 -- -- 93
2018-01-09 18:00:00 15.7 0 Calma 5 Sur 0 -- -- 92
2018-01-09 17:00:00 15.9 3 Sur 8 Sur 0 -- -- 90
2018-01-09 16:00:00 16.5 5 Sudeste 14 Sur 0 -- -- 86
2018-01-09 15:00:00 17.1 4 Este 15 Nordeste 0 -- -- 82
2018-01-09 14:00:00 18 10 Nordeste 19 Nordeste 0 -- -- 79
2018-01-09 13:00:00 18 9 Nordeste 21 Este 0 -- -- 79
2018-01-09 12:00:00 19.8 7 Este 15 Nordeste 0 -- -- 71
2018-01-09 11:00:00 18.4 4 Sur 13 Sur 0 -- -- 70
2018-01-09 10:00:00 17.2 5 Sudeste 9 Sudeste 0 -- -- 73
2018-01-09 09:00:00 15 0 Calma 7 Noroeste 0 -- -- 85
2018-01-09 08:00:00 12.8 0 Calma 8 Noroeste 0 -- -- 88
2018-01-09 07:00:00 12.8 2 Noroeste 10 Noroeste 0 -- -- 88
2018-01-09 06:00:00 12.9 3 Oeste 5 Noroeste 0 -- -- 89
2018-01-09 05:00:00 12.7 4 Noroeste 6 Oeste 0 -- -- 89
2018-01-09 04:00:00 12.6 2 Noroeste 7 Noroeste 0 -- -- 90
2018-01-09 03:00:00 12.8 6 Noroeste 8 Noroeste 0 -- -- 90
2018-01-09 02:00:00 13.2 4 Noroeste 18 Norte 0 -- -- 88
2018-01-09 01:00:00 13.6 11 Norte 15 Norte 0 -- -- 86
2018-01-09 00:00:00 13.6 5 Norte 10 Norte 0 -- -- 89
2018-01-08 23:00:00 14 3 Oeste 5 Oeste 0 -- -- 88
2018-01-08 22:00:00 13.9 5 Nordeste 8 Noroeste 0 -- -- 86
2018-01-08 21:00:00 14.7 6 Norte 10 Nordeste 0 -- -- 86
2018-01-08 20:00:00 14.9 4 Nordeste 12 Norte 0 -- -- 84
2018-01-08 19:00:00 15.9 4 Nordeste 6 Este 0 -- -- 83
2018-01-08 18:00:00 16.2 4 Sudeste 11 Sudeste 0 -- -- 82
2018-01-08 17:00:00 16.4 8 Sudeste 18 Sur 0 -- -- 82
2018-01-08 16:00:00 16.8 12 Sur 22 Sur 0 -- -- 79
2018-01-08 15:00:00 17.5 9 Sudeste 17 Sudeste 0 -- -- 73
2018-01-08 14:00:00 17.4 5 Sur 19 Sur 0 -- -- 70
2018-01-08 13:00:00 17.7 12 Sur 32 Sur 0 -- -- 69
2018-01-08 12:00:00 19.2 8 Sudoeste 21 Sur 0 -- -- 62
2018-01-08 11:00:00 18 5 Sur 11 Sur 0 -- -- 65
2018-01-08 10:00:00 15 3 Noroeste 19 Noroeste 0 -- -- 77
2018-01-08 09:00:00 14.9 14 Norte 26 Norte 0 -- -- 77
2018-01-08 08:00:00 13.6 4 Sudoeste 12 Norte 0 -- -- 81
2018-01-08 07:00:00 13.6 9 Oeste 22 Norte 0 -- -- 82
2018-01-08 06:00:00 13.7 6 Noroeste 29 Norte 0 -- -- 75
2018-01-08 05:00:00 13.6 5 Noroeste 19 Oeste 0 -- -- 74
2018-01-08 04:00:00 13.8 13 Norte 20 Norte 0 -- -- 76
2018-01-08 03:00:00 13.5 6 Noroeste 33 Noroeste 0 -- -- 72
2018-01-08 02:00:00 13.7 13 Norte 35 Norte 0 -- -- 76
2018-01-08 01:00:00 13.4 16 Norte 26 Norte 0 -- -- 81
2018-01-08 00:00:00 13.3 11 Norte 24 Nordeste 0 -- -- 81
2018-01-07 23:00:00 14.6 9 Noroeste 26 Norte 0 -- -- 73
2018-01-07 22:00:00 14.6 13 Norte 26 Norte 0 -- -- 68
2018-01-07 21:00:00 14.3 21 Norte 31 Norte 0 -- -- 69
2018-01-07 20:00:00 15 10 Noroeste 43 Noroeste 0 -- -- 53
2018-01-07 19:00:00 14.9 19 Norte 36 Norte 0 -- -- 56
2018-01-07 18:00:00 15.4 22 Norte 45 Norte 0 -- -- 57
2018-01-07 17:00:00 16.3 34 Norte 51 Norte 0 -- -- 58
2018-01-07 16:00:00 17.4 25 Norte 45 Norte 0 -- -- 52
2018-01-07 15:00:00 17.7 33 Norte 55 Norte 0 -- -- 46
2018-01-07 14:00:00 17.4 21 Norte 37 Noroeste 0 -- -- 55
2018-01-07 13:00:00 16.8 18 Norte 40 Norte 0.2 -- -- 63
2018-01-07 12:00:00 15.1 23 Norte 39 Nordeste 0.2 -- -- 76
2018-01-07 11:00:00 15.9 14 Norte 41 Norte 0.2 -- -- 69
2018-01-07 10:00:00 14 14 Norte 35 Norte 0 -- -- 78
2018-01-07 09:00:00 12.8 15 Norte 34 Norte 0.2 -- -- 80
2018-01-07 08:00:00 12.4 17 Norte 39 Norte 0.2 -- -- 78
2018-01-07 07:00:00 12.7 18 Norte 36 Norte 0 -- -- 77
2018-01-07 06:00:00 12.8 16 Norte 38 Nordeste 0.2 -- -- 81
2018-01-07 05:00:00 12.5 23 Norte 43 Norte 1.6 -- -- 85
2018-01-07 04:00:00 12.9 16 Norte 40 Norte 0.6 -- -- 79
2018-01-07 03:00:00 12.6 13 Norte 30 Norte 0.2 -- -- 83
2018-01-07 02:00:00 12.4 24 Norte 41 Norte 2.8 -- -- 87
2018-01-07 01:00:00 13.4 19 Norte 36 Norte 0.4 -- -- 77
2018-01-07 00:00:00 13.2 24 Norte 41 Norte 0.8 -- -- 82
2018-01-06 23:00:00 13.8 18 Norte 35 Noroeste 0.4 -- -- 80
2018-01-06 22:00:00 14.3 17 Norte 39 Norte 0 -- -- 74
2018-01-06 21:00:00 14.7 25 Norte 38 Norte 0 -- -- 74
2018-01-06 20:00:00 15.4 19 Norte 37 Norte 0 -- -- 69
2018-01-06 19:00:00 15.5 13 Norte 37 Norte 0 -- -- 68
2018-01-06 18:00:00 14.9 20 Norte 39 Norte 0 -- -- 76
2018-01-06 17:00:00 16.5 23 Norte 39 Norte 0 -- -- 65
2018-01-06 16:00:00 17.8 8 Sur 38 Norte 0 -- -- 65
2018-01-06 15:00:00 18.4 5 Sudoeste 14 Sudeste 0 -- -- 63
2018-01-06 14:00:00 17.6 5 Sur 12 Sur 0 -- -- 70
2018-01-06 13:00:00 17 6 Sur 14 Sur 0 -- -- 76
2018-01-06 12:00:00 16.9 12 Sur 19 Sudeste 0 -- -- 77
2018-01-06 11:00:00 17.4 6 Sur 12 Sur 0 -- -- 77
2018-01-06 10:00:00 16 3 Sudoeste 6 Sur 0 -- -- 82
2018-01-06 09:00:00 14.8 3 Oeste 6 Norte 0 -- -- 82
2018-01-06 08:00:00 13.2 0 Calma 10 Oeste 0 -- -- 83
2018-01-06 07:00:00 13.2 6 Oeste 10 Noroeste 0 -- -- 81
2018-01-06 06:00:00 13.4 7 Oeste 10 Sudoeste 0 -- -- 80
2018-01-06 05:00:00 13.3 5 Oeste 9 Noroeste 0 -- -- 76
2018-01-06 04:00:00 13.3 3 Oeste 10 Oeste 0 -- -- 75
2018-01-06 03:00:00 13.2 7 Oeste 10 Noroeste 0 -- -- 77
2018-01-06 02:00:00 13.2 4 Noroeste 9 Oeste 0 -- -- 82
2018-01-06 01:00:00 13.5 4 Oeste 8 Norte 0 -- -- 87
2018-01-06 00:00:00 13.6 7 Norte 10 Norte 0 -- -- 88
2018-01-05 23:00:00 14 3 Norte 8 Oeste 0 -- -- 87
2018-01-05 22:00:00 14.1 4 Norte 6 Norte 0 -- -- 87
2018-01-05 21:00:00 14.5 4 Noroeste 7 Noroeste 0 -- -- 86
2018-01-05 20:00:00 15.4 4 Sudoeste 8 Sudoeste 0 -- -- 84
2018-01-05 19:00:00 16.1 5 Sur 8 Sudoeste 0 -- -- 80
2018-01-05 18:00:00 17.1 5 Nordeste 17 Nordeste 0 -- -- 78
2018-01-05 17:00:00 18.2 7 Sudeste 13 Este 0 -- -- 73
2018-01-05 16:00:00 20.3 8 Este 15 Nordeste 0 -- -- 66
2018-01-05 15:00:00 20.3 8 Sudeste 18 Sudeste 0 -- -- 65
2018-01-05 14:00:00 21.4 10 Sudeste 19 Sur 0 -- -- 60
2018-01-05 13:00:00 21.2 8 Este 22 Este 0 -- -- 57
2018-01-05 12:00:00 21.5 11 Nordeste 19 Este 0 -- -- 56
2018-01-05 11:00:00 21 13 Nordeste 20 Nordeste 0 -- -- 59
2018-01-05 10:00:00 19.4 4 Norte 8 Nordeste 0 -- -- 49
2018-01-05 09:00:00 18.8 3 Sur 15 Norte 0 -- -- 24
2018-01-05 08:00:00 16.3 12 Norte 15 Noroeste 0 -- -- 23
2018-01-05 07:00:00 16.8 13 Noroeste 19 Norte 0 -- -- 22
2018-01-05 06:00:00 17.4 13 Norte 21 Norte 0 -- -- 21
2018-01-05 05:00:00 17.8 12 Norte 23 Norte 0 -- -- 21
2018-01-05 04:00:00 18.8 18 Norte 26 Noroeste 0 -- -- 20
2018-01-05 03:00:00 18.6 15 Norte 25 Norte 0 -- -- 19
2018-01-05 02:00:00 19 17 Norte 25 Norte 0 -- -- 20
2018-01-05 01:00:00 19.7 15 Norte 27 Noroeste 0 -- -- 20
2018-01-05 00:00:00 19.9 16 Norte 26 Norte 0 -- -- 19
2018-01-04 23:00:00 16.5 12 Nordeste 22 Norte 0 -- -- 33
2018-01-04 22:00:00 18.5 10 Norte 25 Norte 0 -- -- 20
2018-01-04 21:00:00 20.2 15 Norte 27 Norte 0 -- -- 18
2018-01-04 20:00:00 19.9 16 Norte 22 Norte 0 -- -- 20
2018-01-04 19:00:00 19.4 12 Norte 23 Norte 0 -- -- 23
2018-01-04 18:00:00 20.4 11 Norte 24 Nordeste 0 -- -- 32
2018-01-04 17:00:00 21.1 15 Nordeste 27 Nordeste 0 -- -- 53
2018-01-04 16:00:00 22.4 18 Nordeste 31 Nordeste 0 -- -- 54
2018-01-04 15:00:00 22.5 18 Nordeste 30 Nordeste 0 -- -- 55
2018-01-04 14:00:00 22.7 19 Nordeste 30 Nordeste 0 -- -- 59
2018-01-04 13:00:00 22.9 18 Nordeste 27 Nordeste 0 -- -- 58
2018-01-04 12:00:00 23.5 16 Nordeste 24 Nordeste 0 -- -- 51
2018-01-04 11:00:00 21.5 16 Nordeste 24 Nordeste 0 -- -- 56
2018-01-04 10:00:00 19.4 15 Nordeste 23 Nordeste 0 -- -- 61
2018-01-04 09:00:00 18.7 14 Nordeste 37 Norte 0 -- -- 32
2018-01-04 08:00:00 17.8 24 Norte 35 Norte 0 -- -- 31
2018-01-04 07:00:00 17.5 18 Norte 30 Nordeste 0 -- -- 28
2018-01-04 06:00:00 19.4 14 Norte 27 Noroeste 0 -- -- 18
2018-01-04 05:00:00 19.8 17 Norte 35 Norte 0 -- -- 19
2018-01-04 04:00:00 20.1 19 Norte 31 Norte 0 -- -- 19
2018-01-04 03:00:00 20.5 22 Norte 35 Norte 0 -- -- 18
2018-01-04 02:00:00 20.5 24 Norte 35 Norte 0 -- -- 17
2018-01-04 01:00:00 20.6 23 Norte 40 Norte 0 -- -- 11
2018-01-04 00:00:00 19.9 25 Norte 37 Norte 0 -- -- 15
2018-01-03 23:00:00 20.6 24 Norte 36 Norte 0 -- -- 17
2018-01-03 22:00:00 20.9 22 Norte 38 Norte 0 -- -- 18
2018-01-03 21:00:00 20.7 21 Norte 35 Norte 0 -- -- 18
2018-01-03 20:00:00 21.3 21 Norte 31 Norte 0 -- -- 13
2018-01-03 19:00:00 21.2 17 Norte 27 Norte 0 -- -- 13
2018-01-03 18:00:00 19.3 12 Nordeste 30 Nordeste 0 -- -- 44
2018-01-03 17:00:00 21.4 19 Nordeste 27 Nordeste 0 -- -- 40
2018-01-03 16:00:00 23.3 17 Nordeste 28 Nordeste 0 -- -- 36
2018-01-03 15:00:00 24.3 19 Nordeste 29 Este 0 -- -- 30
2018-01-03 14:00:00 25.4 13 Nordeste 28 Nordeste 0 -- -- 24
2018-01-03 13:00:00 25.6 13 Nordeste 22 Nordeste 0 -- -- 21
2018-01-03 12:00:00 24.3 11 Nordeste 19 Nordeste 0 -- -- 48
2018-01-03 11:00:00 22.7 8 Nordeste 20 Nordeste 0 -- -- 54
2018-01-03 10:00:00 18.4 13 Nordeste 21 Nordeste 0 -- -- 67
2018-01-03 09:00:00 21 10 Norte 17 Noroeste 0 -- -- 22
2018-01-03 08:00:00 15.7 12 Nordeste 22 Norte 0 -- -- 44
2018-01-03 07:00:00 15.5 14 Nordeste 22 Nordeste 0 -- -- 60
2018-01-03 06:00:00 16.2 12 Nordeste 20 Norte 0 -- -- 53
2018-01-03 05:00:00 21 15 Norte 27 Norte 0 -- -- 17
2018-01-03 04:00:00 20.8 22 Norte 35 Norte 0 -- -- 21
2018-01-03 03:00:00 21.2 21 Norte 34 Norte 0 -- -- 20
2018-01-03 02:00:00 21.1 19 Norte 42 Norte 0 -- -- 21
2018-01-03 01:00:00 21.3 24 Norte 42 Norte 0 -- -- 22
2018-01-03 00:00:00 20.4 19 Norte 38 Norte 0 -- -- 24
2018-01-02 23:00:00 21.1 24 Norte 44 Norte 0 -- -- 22
2018-01-02 22:00:00 19.4 29 Norte 41 Norte 0 -- -- 34
2018-01-02 21:00:00 20.1 26 Norte 43 Norte 0 -- -- 31
2018-01-02 20:00:00 19.8 28 Nordeste 42 Nordeste 0 -- -- 36
2018-01-02 19:00:00 19.7 18 Nordeste 33 Norte 0 -- -- 45
2018-01-02 18:00:00 21.4 15 Norte 35 Norte 0 -- -- 27
2018-01-02 17:00:00 22.2 19 Norte 33 Norte 0 -- -- 31
2018-01-02 16:00:00 23.6 17 Nordeste 33 Nordeste 0 -- -- 32
2018-01-02 15:00:00 23.8 21 Nordeste 31 Norte 0 -- -- 30
2018-01-02 14:00:00 23.9 19 Nordeste 36 Este 0 -- -- 34
2018-01-02 13:00:00 24 22 Nordeste 38 Nordeste 0 -- -- 32
2018-01-02 12:00:00 23.8 18 Nordeste 30 Nordeste 0 -- -- 40
2018-01-02 11:00:00 22.6 21 Norte 36 Norte 0 -- -- 39
2018-01-02 10:00:00 21.3 24 Norte 41 Norte 0 -- -- 41
2018-01-02 09:00:00 20.3 23 Norte 37 Norte 0 -- -- 38
2018-01-02 08:00:00 19.9 24 Norte 42 Norte 0 -- -- 33
2018-01-02 07:00:00 19.4 24 Norte 40 Norte 0 -- -- 35
2018-01-02 06:00:00 19.2 21 Norte 38 Norte 0 -- -- 37
2018-01-02 05:00:00 18.7 23 Norte 42 Norte 0 -- -- 41
2018-01-02 04:00:00 17.7 21 Nordeste 40 Norte 0 -- -- 52
2018-01-02 03:00:00 17.5 15 Nordeste 38 Norte 0 -- -- 59
2018-01-02 02:00:00 19 18 Norte 39 Nordeste 0 -- -- 44
2018-01-02 01:00:00 19 15 Norte 33 Norte 0 -- -- 48
2018-01-02 00:00:00 18.9 21 Norte 48 Norte 0 -- -- 49
2018-01-01 23:00:00 18 29 Norte 52 Norte 0 -- -- 57
2018-01-01 22:00:00 18.1 33 Norte 51 Norte 0 -- -- 58
2018-01-01 21:00:00 19.7 25 Norte 72 Norte 0 -- -- 42
2018-01-01 20:00:00 18.7 44 Norte 71 Norte 0 -- -- 54
2018-01-01 19:00:00 18.6 39 Norte 63 Norte 0 -- -- 53
2018-01-01 18:00:00 19.4 35 Norte 55 Norte 0 -- -- 44
2018-01-01 17:00:00 21.8 40 Norte 57 Norte 0 -- -- 29
2018-01-01 16:00:00 22.8 33 Norte 51 Norte 0 -- -- 25
2018-01-01 15:00:00 22.4 34 Norte 49 Nordeste 0 -- -- 32
2018-01-01 14:00:00 21.5 30 Nordeste 45 Norte 0 -- -- 60
2018-01-01 13:00:00 21.3 28 Nordeste 43 Nordeste 0 -- -- 61
2018-01-01 12:00:00 21.7 25 Nordeste 38 Nordeste 0 -- -- 58
2018-01-01 11:00:00 20.2 24 Norte 35 Nordeste 0 -- -- 60
2018-01-01 10:00:00 20.4 19 Nordeste 42 Norte 0 -- -- 47
2018-01-01 09:00:00 17.8 27 Norte 44 Norte 0 -- -- 52
2018-01-01 08:00:00 16 27 Norte 46 Norte 0 -- -- 65
2018-01-01 07:00:00 18.1 28 Norte 50 Norte 0 -- -- 38
2018-01-01 06:00:00 17 32 Norte 55 Norte 0 -- -- 47
2018-01-01 05:00:00 16.7 30 Norte 49 Norte 0 -- -- 59
2018-01-01 04:00:00 17.8 28 Norte 48 Norte 0 -- -- 46
2018-01-01 03:00:00 17.8 30 Norte 48 Norte 0 -- -- 47
2018-01-01 02:00:00 18.2 26 Norte 46 Nordeste 0 -- -- 43
2018-01-01 01:00:00 18.6 27 Norte 44 Norte 0 -- -- 39
2018-01-01 00:00:00 18.9 30 Norte 48 Norte 0 -- -- 42
2017-12-31 23:00:00 18.5 30 Norte 47 Norte 0 -- -- 50
2017-12-31 22:00:00 19.3 32 Norte 50 Norte 0 -- -- 39
2017-12-31 21:00:00 18.4 31 Norte 49 Norte 0 -- -- 47
2017-12-31 20:00:00 18.7 27 Norte 45 Norte 0 -- -- 45
2017-12-31 19:00:00 19 14 Norte 23 Norte 0 -- -- 38
2017-12-31 18:00:00 20 14 Norte 21 Nordeste 0 -- -- 54
2017-12-31 17:00:00 23.3 11 Nordeste 21 Norte 0 -- -- 50
2017-12-31 16:00:00 24.2 14 Nordeste 21 Nordeste 0 -- -- 40
2017-12-31 15:00:00 24.7 14 Nordeste 22 Nordeste 0 -- -- 35
2017-12-31 14:00:00 25.5 12 Nordeste 24 Nordeste 0 -- -- 31
2017-12-31 13:00:00 24.9 17 Nordeste 28 Nordeste 0 -- -- 35
2017-12-31 12:00:00 24.6 18 Norte 31 Nordeste 0 -- -- 26
2017-12-31 11:00:00 23 21 Norte 31 Norte 0 -- -- 28
2017-12-31 10:00:00 22.2 14 Nordeste 29 Norte 0 -- -- 32
2017-12-31 09:00:00 20.7 18 Norte 30 Norte 0 -- -- 29
2017-12-31 08:00:00 19.1 20 Norte 28 Norte 0 -- -- 27
2017-12-31 07:00:00 19.1 20 Norte 28 Norte 0 -- -- 24
2017-12-31 06:00:00 18.2 14 Norte 20 Norte 0 -- -- 35
2017-12-31 05:00:00 18.8 14 Norte 21 Norte 0 -- -- 32
2017-12-31 04:00:00 18.4 12 Norte 18 Norte 0 -- -- 33
2017-12-31 03:00:00 17.7 12 Norte 15 Norte 0 -- -- 34
2017-12-31 02:00:00 18.7 11 Norte 14 Norte 0 -- -- 33
2017-12-31 01:00:00 17.3 11 Norte 15 Norte 0 -- -- 38
2017-12-31 00:00:00 17.1 10 Norte 15 Norte 0 -- -- 43